createdAt,value
2022-11-08T00:01:51.358Z,87.28
2022-11-08T00:04:23.655Z,87.24
2022-11-08T00:07:14.053Z,87.22
2022-11-08T00:10:04.464Z,87.56
2022-11-08T00:12:54.822Z,87.58
2022-11-08T00:15:26.800Z,87.48
2022-11-08T00:17:58.756Z,87.18
2022-11-08T00:20:30.833Z,87.17
2022-11-08T00:23:04.048Z,87.15
2022-11-08T00:25:36.007Z,87.14
2022-11-08T00:28:07.914Z,87.13
2022-11-08T00:30:39.855Z,86.90
2022-11-08T00:33:11.744Z,86.95
2022-11-08T00:35:43.703Z,86.69
2022-11-08T00:38:15.995Z,86.58
2022-11-08T00:40:48.221Z,86.58
2022-11-08T00:43:20.146Z,86.44
2022-11-08T00:45:52.069Z,86.38
2022-11-08T00:48:24.044Z,86.66
2022-11-08T00:50:55.943Z,86.70
2022-11-08T00:53:27.945Z,86.63
2022-11-08T00:56:02.024Z,86.28
2022-11-08T00:58:34.461Z,86.44
2022-11-08T01:01:13.007Z,86.55
2022-11-08T01:03:46.091Z,85.94
2022-11-08T01:06:20.317Z,85.61
2022-11-08T01:08:52.475Z,85.22
2022-11-08T01:11:26.444Z,85.00
2022-11-08T01:14:00.459Z,85.49
2022-11-08T01:16:34.361Z,85.22
2022-11-08T01:19:06.703Z,85.26
2022-11-08T01:21:38.678Z,85.21
2022-11-08T01:24:10.627Z,85.55
2022-11-08T01:26:42.624Z,84.94
2022-11-08T01:29:14.565Z,85.18
2022-11-08T01:31:46.493Z,85.68
2022-11-08T01:34:18.446Z,86.38
2022-11-08T01:36:50.399Z,86.83
2022-11-08T01:39:22.327Z,86.96
2022-11-08T01:41:54.239Z,86.52
2022-11-08T01:44:26.143Z,86.54
2022-11-08T01:46:58.054Z,86.66
2022-11-08T01:49:40.226Z,87.07
2022-11-08T01:52:20.137Z,86.52
2022-11-08T01:55:22.881Z,86.79
2022-11-08T01:58:06.859Z,87.08
2022-11-08T02:00:40.073Z,87.18
2022-11-08T02:03:16.868Z,87.20
2022-11-08T02:05:49.015Z,87.75
2022-11-08T02:08:25.705Z,87.92
2022-11-08T02:10:58.658Z,88.31
2022-11-08T02:13:32.909Z,88.65
2022-11-08T02:16:16.494Z,88.91
2022-11-08T02:18:49.108Z,89.10
2022-11-08T02:21:30.467Z,88.98
2022-11-08T02:24:09.059Z,89.33
2022-11-08T02:26:41.539Z,89.61
2022-11-08T02:29:35.739Z,89.92
2022-11-08T02:32:08.094Z,89.79
2022-11-08T02:34:49.751Z,89.37
2022-11-08T02:37:24.077Z,89.59
2022-11-08T02:39:56.080Z,90.06
2022-11-08T02:42:28.058Z,90.60
2022-11-08T02:45:00.016Z,90.27
2022-11-08T02:47:31.922Z,90.55
2022-11-08T02:50:04.242Z,90.57
2022-11-08T02:52:36.155Z,90.72
2022-11-08T02:55:08.260Z,90.77
2022-11-08T02:57:40.190Z,90.61
2022-11-08T03:00:13.348Z,90.57
2022-11-08T03:02:45.321Z,90.60
2022-11-08T03:05:18.448Z,91.42
2022-11-08T03:07:50.790Z,91.69
2022-11-08T03:10:24.888Z,91.55
2022-11-08T03:13:03.100Z,91.37
2022-11-08T03:15:35.116Z,91.76
2022-11-08T03:18:07.235Z,92.01
2022-11-08T03:20:39.260Z,92.03
2022-11-08T03:23:11.212Z,92.29
2022-11-08T03:25:43.166Z,92.56
2022-11-08T03:28:19.120Z,92.78
2022-11-08T03:30:53.775Z,92.79
2022-11-08T03:33:26.247Z,92.36
2022-11-08T03:35:58.157Z,92.65
2022-11-08T03:38:30.056Z,92.19
2022-11-08T03:41:01.973Z,91.78
2022-11-08T03:43:33.919Z,91.62
2022-11-08T03:46:05.900Z,91.97
2022-11-08T03:48:37.815Z,92.95
2022-11-08T03:51:09.878Z,93.20
2022-11-08T03:53:41.809Z,93.01
2022-11-08T03:56:13.793Z,92.76
2022-11-08T03:58:45.704Z,93.05
2022-11-08T04:01:17.776Z,93.13
2022-11-08T04:03:49.751Z,93.31
2022-11-08T04:06:21.690Z,93.82
2022-11-08T04:08:53.640Z,93.83
2022-11-08T04:11:43.941Z,93.86
2022-11-08T04:14:34.435Z,93.88
2022-11-08T04:17:06.365Z,93.44
2022-11-08T04:19:56.664Z,93.60
2022-11-08T04:22:28.579Z,93.75
2022-11-08T04:25:00.480Z,93.92
2022-11-08T04:27:32.398Z,93.80
2022-11-08T04:30:04.915Z,93.81
2022-11-08T04:32:36.987Z,93.88
2022-11-08T04:35:09.019Z,93.39
2022-11-08T04:37:40.944Z,93.34
2022-11-08T04:40:13.430Z,93.41
2022-11-08T04:42:45.487Z,93.27
2022-11-08T04:45:17.523Z,93.31
2022-11-08T04:47:49.739Z,93.43
2022-11-08T04:50:21.679Z,93.92
2022-11-08T04:52:55.319Z,93.38
2022-11-08T04:55:27.263Z,93.01
2022-11-08T04:57:59.667Z,92.96
2022-11-08T05:00:31.559Z,93.23
2022-11-08T05:03:03.474Z,93.19
2022-11-08T05:05:35.431Z,93.41
2022-11-08T05:08:07.359Z,93.33
2022-11-08T05:10:39.251Z,93.15
2022-11-08T05:13:11.235Z,93.33
2022-11-08T05:15:43.146Z,93.13
2022-11-08T05:18:15.364Z,92.77
2022-11-08T05:21:13.439Z,92.92
2022-11-08T05:23:48.542Z,92.66
2022-11-08T05:26:21.124Z,92.55
2022-11-08T05:28:53.461Z,92.45
2022-11-08T05:31:25.477Z,93.04
2022-11-08T05:33:57.824Z,93.42
2022-11-08T05:36:29.790Z,93.51
2022-11-08T05:39:01.804Z,93.77
2022-11-08T05:41:33.745Z,93.58
2022-11-08T05:44:05.783Z,94.02
2022-11-08T05:46:37.790Z,94.14
2022-11-08T05:49:09.735Z,93.71
2022-11-08T05:51:41.625Z,93.12
2022-11-08T05:54:13.838Z,93.32
2022-11-08T05:56:45.736Z,93.54
2022-11-08T05:59:17.658Z,93.32
2022-11-08T06:01:49.690Z,93.28
2022-11-08T06:04:21.703Z,93.05
2022-11-08T06:06:53.718Z,93.03
2022-11-08T06:09:25.639Z,93.35
2022-11-08T06:11:57.534Z,93.24
2022-11-08T06:14:29.920Z,93.19
2022-11-08T06:17:01.911Z,93.86
2022-11-08T06:19:33.811Z,94.10
2022-11-08T06:22:05.805Z,94.06
2022-11-08T06:24:37.948Z,94.48
2022-11-08T06:27:09.899Z,94.57
2022-11-08T06:29:42.603Z,94.14
2022-11-08T06:32:14.912Z,94.26
2022-11-08T06:34:47.074Z,94.09
2022-11-08T06:37:18.999Z,94.84
2022-11-08T06:39:50.951Z,95.08
2022-11-08T06:42:23.287Z,95.09
2022-11-08T06:44:55.239Z,96.05
2022-11-08T06:47:27.204Z,96.15
2022-11-08T06:49:59.156Z,96.35
2022-11-08T06:52:31.099Z,96.48
2022-11-08T06:55:03.201Z,96.27
2022-11-08T06:57:35.181Z,96.17
2022-11-08T07:00:07.960Z,95.38
2022-11-08T07:02:40.316Z,95.24
2022-11-08T07:05:13.036Z,95.25
2022-11-08T07:07:45.779Z,95.39
2022-11-08T07:10:23.007Z,95.17
2022-11-08T07:13:11.479Z,94.99
2022-11-08T07:15:43.907Z,94.62
2022-11-08T07:18:19.005Z,93.29
2022-11-08T07:20:52.319Z,92.95
2022-11-08T07:23:24.450Z,92.61
2022-11-08T07:25:56.560Z,92.30
2022-11-08T07:28:28.559Z,91.75
2022-11-08T07:31:05.221Z,91.31
2022-11-08T07:33:37.195Z,90.57
2022-11-08T07:36:09.189Z,89.60
2022-11-08T07:38:41.114Z,89.48
2022-11-08T07:41:13.129Z,89.25
2022-11-08T07:43:45.100Z,89.28
2022-11-08T07:46:17.087Z,89.43
2022-11-08T07:48:49.065Z,89.23
2022-11-08T07:51:21.058Z,88.67
2022-11-08T07:53:53.061Z,88.90
2022-11-08T07:56:24.983Z,88.53
2022-11-08T07:58:57.028Z,87.92
2022-11-08T08:01:29.380Z,87.34
2022-11-08T08:04:01.368Z,87.02
2022-11-08T08:06:33.337Z,86.18
2022-11-08T08:09:05.639Z,86.22
2022-11-08T08:11:37.577Z,85.80
2022-11-08T08:14:09.537Z,85.65
2022-11-08T08:16:41.560Z,85.92
2022-11-08T08:19:13.603Z,86.02
2022-11-08T08:21:45.766Z,84.84
2022-11-08T08:24:17.713Z,84.29
2022-11-08T08:26:49.666Z,84.25
2022-11-08T08:29:21.642Z,84.04
2022-11-08T08:31:53.549Z,84.04
2022-11-08T08:34:25.483Z,84.21
2022-11-08T08:37:00.287Z,83.66
2022-11-08T08:39:32.294Z,83.17
2022-11-08T08:42:04.191Z,83.72
2022-11-08T08:44:36.221Z,83.51
2022-11-08T08:47:08.237Z,82.81
2022-11-08T08:49:40.246Z,81.99
2022-11-08T08:52:12.206Z,81.96
2022-11-08T08:54:44.269Z,81.67
2022-11-08T08:57:16.261Z,80.48
2022-11-08T09:02:42.406Z,80.05
2022-11-08T09:05:15.226Z,80.13
2022-11-08T09:07:47.225Z,80.15
2022-11-08T09:10:19.188Z,79.37
2022-11-08T09:12:51.719Z,79.43
2022-11-08T09:15:23.735Z,78.91
2022-11-08T09:17:56.755Z,79.19
2022-11-08T09:20:28.817Z,79.40
2022-11-08T09:23:04.075Z,78.76
2022-11-08T09:25:36.106Z,78.84
2022-11-08T09:28:08.065Z,77.88
2022-11-08T09:30:39.990Z,78.02
2022-11-08T09:33:12.005Z,77.52
2022-11-08T09:35:46.295Z,77.41
2022-11-08T09:38:18.729Z,77.63
2022-11-08T09:41:15.299Z,77.61
2022-11-08T09:44:07.137Z,77.13
2022-11-08T09:46:51.427Z,77.54
2022-11-08T09:49:41.676Z,77.08
2022-11-08T09:52:24.648Z,77.11
2022-11-08T09:55:18.059Z,77.09
2022-11-08T09:58:12.927Z,75.71
2022-11-08T10:00:45.954Z,74.55
2022-11-08T10:03:19.350Z,73.88
2022-11-08T10:06:03.427Z,71.92
2022-11-08T10:09:09.215Z,72.46
2022-11-08T10:11:59.740Z,71.41
2022-11-08T10:15:19.785Z,70.77
2022-11-08T10:18:22.759Z,70.58
2022-11-08T10:21:04.026Z,69.77
2022-11-08T10:23:45.536Z,69.17
2022-11-08T10:26:30.995Z,69.10
2022-11-08T10:29:14.309Z,68.68
2022-11-08T10:31:51.399Z,67.08
2022-11-08T10:34:28.816Z,67.92
2022-11-08T10:37:06.750Z,65.88
2022-11-08T10:39:45.816Z,65.95
2022-11-08T10:42:34.971Z,65.51
2022-11-08T10:45:10.168Z,65.41
2022-11-08T10:47:45.992Z,65.83
2022-11-08T10:50:21.790Z,65.94
2022-11-08T10:53:04.135Z,64.47
2022-11-08T10:55:47.696Z,64.64
2022-11-08T10:58:39.130Z,64.32
2022-11-08T11:01:22.718Z,64.40
2022-11-08T11:03:54.704Z,65.15
2022-11-08T11:06:30.870Z,64.45
2022-11-08T11:09:19.316Z,64.53
2022-11-08T11:12:09.267Z,64.82
2022-11-08T11:14:41.253Z,63.54
2022-11-08T11:17:18.959Z,64.07
2022-11-08T11:19:56.881Z,64.29
2022-11-08T11:22:35.711Z,64.31
2022-11-08T11:25:16.870Z,64.17
2022-11-08T11:27:54.850Z,63.21
2022-11-08T11:30:33.448Z,62.84
2022-11-08T11:33:23.799Z,62.12
2022-11-08T11:35:58.528Z,61.81
2022-11-08T11:39:04.909Z,62.93
2022-11-08T11:42:43.684Z,62.18
2022-11-08T11:45:13.172Z,62.02
2022-11-08T11:47:56.610Z,62.05
2022-11-08T11:50:38.336Z,61.61
2022-11-08T11:53:18.096Z,62.15
2022-11-08T11:56:45.949Z,61.21
2022-11-08T11:59:49.790Z,60.69
2022-11-08T12:03:02.913Z,60.35
2022-11-08T12:06:28.514Z,57.56
2022-11-08T12:09:25.303Z,58.50
2022-11-08T12:12:49.228Z,57.38
2022-11-08T12:15:51.308Z,58.33
2022-11-08T12:18:56.963Z,56.40
2022-11-08T12:21:59.507Z,56.26
2022-11-08T12:25:07.755Z,56.16
2022-11-08T12:27:52.968Z,56.46
2022-11-08T12:30:51.492Z,55.77
2022-11-08T12:33:47.454Z,55.91
2022-11-08T12:36:53.923Z,55.30
2022-11-08T12:39:45.490Z,56.07
2022-11-08T12:42:38.592Z,55.14
2022-11-08T12:45:36.009Z,54.96
2022-11-08T12:48:28.957Z,54.80
2022-11-08T12:51:04.388Z,54.26
2022-11-08T12:54:20.113Z,54.14
2022-11-08T12:56:54.671Z,54.85
2022-11-08T12:59:39.910Z,54.11
2022-11-08T13:02:25.266Z,53.64
2022-11-08T13:05:09.675Z,53.80
2022-11-08T13:07:57.527Z,54.20
2022-11-08T13:10:59.179Z,53.93
2022-11-08T13:13:53.211Z,54.26
2022-11-08T13:16:39.262Z,54.15
2022-11-08T13:19:46.550Z,54.44
2022-11-08T13:22:33.242Z,54.54
2022-11-08T13:25:14.431Z,54.29
2022-11-08T13:27:48.477Z,54.16
2022-11-08T13:30:20.286Z,54.85
2022-11-08T13:33:21.854Z,54.53
2022-11-08T13:36:39.867Z,53.72
2022-11-08T13:40:18.220Z,53.85
2022-11-08T13:42:50.073Z,53.66
2022-11-08T13:45:28.656Z,53.69
2022-11-08T13:48:03.542Z,54.30
2022-11-08T13:51:25.124Z,53.18
2022-11-08T13:54:02.809Z,54.66
2022-11-08T13:56:52.121Z,54.00
2022-11-08T13:59:33.356Z,55.57
2022-11-08T14:02:25.548Z,55.31
2022-11-08T14:05:23.115Z,55.20
2022-11-08T14:08:15.379Z,56.01
2022-11-08T14:11:27.528Z,55.70
2022-11-08T14:14:24.297Z,55.80
2022-11-08T14:17:28.122Z,55.85
2022-11-08T14:20:37.207Z,56.80
2022-11-08T14:23:29.613Z,55.71
2022-11-08T14:26:16.491Z,57.05
2022-11-08T14:28:50.291Z,57.25
2022-11-08T14:31:35.175Z,57.00
2022-11-08T14:34:31.027Z,57.03
2022-11-08T14:37:11.883Z,57.39
2022-11-08T14:39:46.631Z,57.21
2022-11-08T14:42:25.241Z,56.94
2022-11-08T14:45:00.660Z,55.92
2022-11-08T14:47:33.070Z,56.87
2022-11-08T14:50:23.571Z,56.22
2022-11-08T14:53:18.885Z,55.63
2022-11-08T14:56:15.753Z,56.38
2022-11-08T14:58:50.306Z,56.27
2022-11-08T15:01:27.315Z,57.03
2022-11-08T15:04:05.423Z,57.60
2022-11-08T15:06:42.861Z,58.67
2022-11-08T15:09:34.928Z,59.56
2022-11-08T15:12:20.952Z,60.84
2022-11-08T15:15:00.251Z,61.65
2022-11-08T15:17:39.117Z,62.28
2022-11-08T15:20:11.141Z,61.99
2022-11-08T15:22:46.203Z,61.38
2022-11-08T15:25:34.878Z,61.13
2022-11-08T15:28:22.299Z,60.61
2022-11-08T15:31:00.220Z,60.44
2022-11-08T15:33:39.786Z,60.90
2022-11-08T15:36:16.883Z,61.21
2022-11-08T15:38:49.635Z,61.15
2022-11-08T15:41:41.033Z,61.95
2022-11-08T15:44:24.297Z,62.81
2022-11-08T15:46:56.845Z,63.39
2022-11-08T15:49:30.680Z,64.46
2022-11-08T15:52:03.730Z,64.76
2022-11-08T15:54:35.679Z,64.66
2022-11-08T15:57:08.177Z,65.02
2022-11-08T15:59:40.170Z,65.47
2022-11-08T16:02:14.673Z,65.56
2022-11-08T16:04:46.601Z,65.74
2022-11-08T16:07:18.607Z,64.99
2022-11-08T16:09:50.634Z,64.63
2022-11-08T16:12:22.616Z,64.04
2022-11-08T16:14:57.957Z,64.29
2022-11-08T16:17:29.947Z,64.12
2022-11-08T16:20:01.918Z,63.84
2022-11-08T16:22:34.144Z,64.17
2022-11-08T16:25:06.362Z,64.12
2022-11-08T16:27:38.491Z,64.72
2022-11-08T16:30:15.758Z,64.69
2022-11-08T16:32:47.913Z,64.69
2022-11-08T16:35:20.077Z,64.72
2022-11-08T16:37:52.672Z,64.65
2022-11-08T16:40:25.917Z,64.83
2022-11-08T16:42:57.953Z,64.16
2022-11-08T16:46:03.133Z,64.84
2022-11-08T16:48:27.485Z,64.65
2022-11-08T16:51:05.722Z,64.49
2022-11-08T16:53:37.763Z,63.74
2022-11-08T16:56:09.775Z,63.01
2022-11-08T16:58:42.545Z,62.35
2022-11-08T17:01:19.696Z,62.12
2022-11-08T17:03:51.691Z,61.08
2022-11-08T17:06:23.689Z,60.53
2022-11-08T17:08:55.678Z,59.80
2022-11-08T17:11:27.645Z,58.57
2022-11-08T17:13:59.589Z,58.58
2022-11-08T17:16:31.563Z,58.46
2022-11-08T17:19:04.762Z,58.51
2022-11-08T17:21:45.366Z,58.00
2022-11-08T17:24:22.005Z,58.03
2022-11-08T17:26:54.212Z,57.85
2022-11-08T17:29:26.259Z,58.05
2022-11-08T17:31:58.334Z,58.04
2022-11-08T17:34:30.402Z,58.12
2022-11-08T17:37:02.405Z,58.36
2022-11-08T17:39:34.374Z,58.28
2022-11-08T17:42:06.475Z,57.70
2022-11-08T17:44:38.649Z,58.13
2022-11-08T17:47:10.610Z,58.33
2022-11-08T17:49:44.222Z,57.95
2022-11-08T17:52:16.846Z,58.23
2022-11-08T17:54:52.815Z,58.34
2022-11-08T17:57:25.139Z,57.89
2022-11-08T17:59:57.255Z,58.34
2022-11-08T18:02:29.384Z,58.72
2022-11-08T18:05:01.427Z,58.61
2022-11-08T18:07:33.403Z,58.33
2022-11-08T18:10:07.127Z,58.92
2022-11-08T18:12:39.125Z,59.20
2022-11-08T18:15:11.416Z,58.97
2022-11-08T18:17:43.363Z,59.46
2022-11-08T18:20:15.280Z,58.77
2022-11-08T18:22:50.366Z,59.09
2022-11-08T18:25:22.317Z,59.76
2022-11-08T18:27:54.451Z,59.77
2022-11-08T18:30:26.455Z,59.27
2022-11-08T18:32:58.610Z,59.28
2022-11-08T18:35:30.541Z,59.10
2022-11-08T18:38:02.566Z,59.74
2022-11-08T18:40:34.639Z,59.91
2022-11-08T18:43:07.076Z,59.92
2022-11-08T18:45:39.453Z,60.58
2022-11-08T18:48:11.527Z,60.67
2022-11-08T18:50:43.430Z,61.29
2022-11-08T18:53:15.640Z,61.14
2022-11-08T18:55:48.524Z,61.10
2022-11-08T18:58:20.610Z,61.02
2022-11-08T19:00:56.141Z,61.41
2022-11-08T19:03:29.041Z,61.57
2022-11-08T19:06:01.009Z,61.49
2022-11-08T19:08:34.184Z,61.79
2022-11-08T19:11:12.060Z,61.79
2022-11-08T19:13:44.020Z,62.16
2022-11-08T19:16:20.322Z,61.64
2022-11-08T19:18:52.271Z,62.28
2022-11-08T19:21:26.955Z,62.16
2022-11-08T19:23:59.838Z,62.01
2022-11-08T19:26:31.980Z,62.71
2022-11-08T19:29:04.821Z,62.54
2022-11-08T19:31:37.013Z,63.25
2022-11-08T19:34:09.636Z,63.50
2022-11-08T19:36:43.678Z,63.78
2022-11-08T19:39:16.100Z,63.65
2022-11-08T19:41:48.014Z,63.76
2022-11-08T19:44:20.720Z,64.36
2022-11-08T19:46:52.756Z,63.68
2022-11-08T19:49:26.452Z,63.60
2022-11-08T19:51:58.389Z,64.15
2022-11-08T19:54:30.868Z,64.26
2022-11-08T19:57:04.534Z,64.76
2022-11-08T19:59:37.299Z,64.61
2022-11-08T20:02:09.663Z,65.19
2022-11-08T20:04:41.792Z,65.29
2022-11-08T20:07:14.874Z,65.47
2022-11-08T20:09:46.909Z,65.77
2022-11-08T20:12:18.823Z,65.81
2022-11-08T20:14:50.845Z,66.43
2022-11-08T20:17:22.782Z,66.00
2022-11-08T20:19:54.704Z,65.94
2022-11-08T20:22:26.687Z,66.10
2022-11-08T20:24:58.595Z,66.12
2022-11-08T20:27:30.585Z,66.50
2022-11-08T20:30:02.533Z,66.59
2022-11-08T20:32:34.517Z,66.62
2022-11-08T20:35:08.625Z,66.43
2022-11-08T20:37:40.723Z,66.49
2022-11-08T20:40:14.282Z,66.93
2022-11-08T20:42:46.255Z,67.06
2022-11-08T20:45:18.242Z,67.61
2022-11-08T20:47:50.162Z,67.13
2022-11-08T20:50:22.203Z,67.69
2022-11-08T20:52:54.171Z,67.99
2022-11-08T20:55:27.367Z,68.27
2022-11-08T20:57:59.318Z,68.24
2022-11-08T21:00:56.789Z,68.46
2022-11-08T21:03:24.524Z,68.87
2022-11-08T21:05:59.757Z,68.64
2022-11-08T21:11:24.897Z,68.85
2022-11-08T21:13:56.820Z,69.15
2022-11-08T21:16:30.869Z,69.43
2022-11-08T21:19:05.652Z,69.57
2022-11-08T21:21:37.716Z,69.83
2022-11-08T21:24:09.797Z,70.07
2022-11-08T21:26:41.706Z,70.04
2022-11-08T21:29:13.699Z,70.29
2022-11-08T21:31:45.744Z,70.24
2022-11-08T21:34:17.618Z,70.64
2022-11-08T21:36:49.556Z,70.63
2022-11-08T21:39:21.446Z,71.12
2022-11-08T21:41:53.622Z,71.30
2022-11-08T21:44:25.520Z,71.93
2022-11-08T21:46:57.421Z,71.88
2022-11-08T21:49:29.308Z,72.00
2022-11-08T21:52:02.336Z,71.88
2022-11-08T21:54:34.351Z,71.74
2022-11-08T21:57:06.273Z,72.30
2022-11-08T21:59:38.236Z,72.70
2022-11-08T22:02:10.679Z,72.64
2022-11-08T22:04:42.560Z,72.64
2022-11-08T22:07:14.593Z,72.26
2022-11-08T22:09:47.077Z,72.81
2022-11-08T22:12:21.949Z,72.85
2022-11-08T22:14:53.911Z,73.08
2022-11-08T22:17:25.948Z,72.82
2022-11-08T22:19:57.944Z,72.64
2022-11-08T22:22:29.911Z,72.88
2022-11-08T22:25:01.944Z,73.06
2022-11-08T22:27:33.959Z,72.99
2022-11-08T22:30:06.576Z,72.97
2022-11-08T22:32:38.710Z,73.11
2022-11-08T22:35:10.635Z,73.02
2022-11-08T22:37:42.698Z,72.72
2022-11-08T22:40:16.438Z,73.13
2022-11-08T22:42:48.508Z,73.45
2022-11-08T22:45:20.480Z,73.10
2022-11-08T22:47:52.401Z,73.74
2022-11-08T22:50:24.377Z,73.44
2022-11-08T22:52:56.302Z,73.67
2022-11-08T22:55:28.424Z,73.89
2022-11-08T22:58:00.376Z,74.03
2022-11-08T23:00:32.308Z,74.46
2022-11-08T23:03:04.376Z,74.10
2022-11-08T23:05:36.494Z,74.45
2022-11-08T23:08:08.617Z,74.42
2022-11-08T23:10:58.741Z,74.13
2022-11-08T23:13:49.303Z,74.49
2022-11-08T23:16:37.883Z,74.07
2022-11-08T23:19:33.795Z,74.31
2022-11-08T23:22:31.581Z,74.20
2022-11-08T23:25:04.425Z,73.34
2022-11-08T23:27:54.748Z,73.53
2022-11-08T23:30:45.322Z,73.21
2022-11-08T23:33:17.555Z,73.61
2022-11-08T23:36:11.978Z,73.21
2022-11-08T23:38:44.453Z,73.33
2022-11-08T23:41:35.257Z,73.37
2022-11-08T23:44:25.443Z,73.75
2022-11-08T23:47:00.414Z,74.53
2022-11-08T23:49:32.322Z,75.75
2022-11-08T23:52:04.440Z,76.53
2022-11-08T23:54:36.355Z,76.61
2022-11-08T23:57:08.363Z,76.72
2022-11-08T23:59:40.362Z,76.37
